createdAt,value
2022-11-28T00:00:05.485Z,97968.78
2022-11-28T00:02:32.087Z,97982.22
2022-11-28T00:04:58.847Z,97973.34
2022-11-28T00:07:25.567Z,97950.84
2022-11-28T00:09:52.895Z,97949.06
2022-11-28T00:12:19.648Z,97988.22
2022-11-28T00:14:46.118Z,97971.44
2022-11-28T00:17:12.573Z,97961.56
2022-11-28T00:19:39.021Z,97955.25
2022-11-28T00:22:05.778Z,97975.94
2022-11-28T00:24:32.229Z,97975.50
2022-11-28T00:26:58.710Z,97971.25
2022-11-28T00:29:25.162Z,97963.97
2022-11-28T00:31:51.873Z,97976.41
2022-11-28T00:34:18.392Z,97992.41
2022-11-28T00:36:45.848Z,97986.41
2022-11-28T00:39:12.851Z,97976.56
2022-11-28T00:41:39.367Z,97970.59
2022-11-28T00:44:05.928Z,97963.63
2022-11-28T00:46:32.377Z,97957.00
2022-11-28T00:48:59.296Z,97958.63
2022-11-28T00:51:27.358Z,97947.13
2022-11-28T00:53:54.587Z,97950.69
2022-11-28T00:56:29.113Z,97943.56
2022-11-28T00:58:56.398Z,97942.09
2022-11-28T01:01:27.933Z,97942.28
2022-11-28T01:03:55.506Z,97928.69
2022-11-28T01:06:23.494Z,97922.38
2022-11-28T01:08:50.222Z,97915.41
2022-11-28T01:11:16.713Z,97896.63
2022-11-28T01:13:43.227Z,97884.50
2022-11-28T01:16:09.912Z,97860.53
2022-11-28T01:18:37.050Z,97869.59
2022-11-28T01:21:03.949Z,97880.28
2022-11-28T01:23:30.432Z,97886.81
2022-11-28T01:25:56.894Z,97872.84
2022-11-28T01:28:23.631Z,97869.13
2022-11-28T01:30:50.129Z,97875.28
2022-11-28T01:33:17.161Z,97883.53
2022-11-28T01:35:43.622Z,97880.63
2022-11-28T01:38:10.103Z,97882.22
2022-11-28T01:40:36.545Z,97879.47
2022-11-28T01:43:03.201Z,97881.84
2022-11-28T01:45:31.663Z,97876.66
2022-11-28T01:48:00.172Z,97882.88
2022-11-28T01:50:26.891Z,97871.38
2022-11-28T01:52:54.859Z,97865.38
2022-11-28T01:55:22.772Z,97867.66
2022-11-28T01:57:49.225Z,97863.28
2022-11-28T02:00:18.740Z,97850.34
2022-11-28T02:02:48.311Z,97854.06
2022-11-28T02:05:15.374Z,97854.72
2022-11-28T02:07:41.925Z,97861.22
2022-11-28T02:10:09.129Z,97863.63
2022-11-28T02:12:53.805Z,97871.88
2022-11-28T02:15:35.265Z,97857.03
2022-11-28T02:18:06.753Z,97851.88
2022-11-28T02:20:36.092Z,97843.78
2022-11-28T02:23:23.841Z,97850.59
2022-11-28T02:26:03.907Z,97848.84
2022-11-28T02:28:48.979Z,97843.66
2022-11-28T02:31:38.670Z,97829.25
2022-11-28T02:34:29.753Z,97833.63
2022-11-28T02:37:11.213Z,97827.31
2022-11-28T02:40:02.511Z,97826.84
2022-11-28T02:42:34.428Z,97830.56
2022-11-28T02:45:13.628Z,97818.59
2022-11-28T02:47:45.394Z,97831.53
2022-11-28T02:50:26.870Z,97833.44
2022-11-28T02:52:56.577Z,97820.03
2022-11-28T02:55:23.688Z,97824.41
2022-11-28T02:57:51.576Z,97823.59
2022-11-28T03:00:25.074Z,97825.53
2022-11-28T03:03:17.607Z,97821.97
2022-11-28T03:06:05.538Z,97811.47
2022-11-28T03:08:48.118Z,97827.31
2022-11-28T03:11:49.805Z,97806.28
2022-11-28T03:14:32.770Z,97819.06
2022-11-28T03:17:11.498Z,97804.19
2022-11-28T03:19:40.251Z,97794.34
2022-11-28T03:23:04.017Z,97795.94
2022-11-28T03:26:08.061Z,97800.47
2022-11-28T03:28:43.391Z,97799.19
2022-11-28T03:31:31.332Z,97794.97
2022-11-28T03:33:58.538Z,97795.66
2022-11-28T03:36:32.749Z,97780.91
2022-11-28T03:39:05.279Z,97779.94
2022-11-28T03:41:37.991Z,97776.06
2022-11-28T03:44:09.670Z,97779.28
2022-11-28T03:46:38.434Z,97781.38
2022-11-28T03:49:05.006Z,97776.22
2022-11-28T03:51:58.828Z,97767.31
2022-11-28T03:54:36.505Z,97777.19
2022-11-28T03:57:06.321Z,97781.22
2022-11-28T03:59:41.697Z,97768.28
2022-11-28T04:02:27.422Z,97771.03
2022-11-28T04:05:08.223Z,97781.06
2022-11-28T04:07:56.349Z,97781.38
2022-11-28T04:10:28.571Z,97777.66
2022-11-28T04:12:59.539Z,97771.34
2022-11-28T04:15:41.426Z,97772.16
2022-11-28T04:18:10.798Z,97751.63
2022-11-28T04:21:05.981Z,97762.31
2022-11-28T04:23:32.443Z,97757.44
2022-11-28T04:26:15.786Z,97750.16
2022-11-28T04:28:42.271Z,97733.50
2022-11-28T04:31:08.823Z,97734.16
2022-11-28T04:33:37.472Z,97745.97
2022-11-28T04:36:04.124Z,97753.22
2022-11-28T04:38:30.598Z,97741.41
2022-11-28T04:41:06.708Z,97739.81
2022-11-28T04:43:40.104Z,97745.44
2022-11-28T04:46:12.070Z,97738.47
2022-11-28T04:48:38.557Z,97735.91
2022-11-28T04:51:19.545Z,97737.50
2022-11-28T04:54:00.350Z,97735.13
2022-11-28T04:56:47.429Z,97735.44
2022-11-28T04:59:13.950Z,97732.38
2022-11-28T05:01:41.270Z,97736.53
2022-11-28T05:04:07.850Z,97728.47
2022-11-28T05:06:35.284Z,97724.91
2022-11-28T05:09:01.817Z,97734.16
2022-11-28T05:11:28.390Z,97727.19
2022-11-28T05:13:55.002Z,97733.81
2022-11-28T05:16:21.597Z,97724.91
2022-11-28T05:18:48.307Z,97731.56
2022-11-28T05:21:14.775Z,97725.03
2022-11-28T05:23:43.132Z,97719.03
2022-11-28T05:26:18.060Z,97707.88
2022-11-28T05:28:45.841Z,97713.53
2022-11-28T05:31:12.579Z,97712.88
2022-11-28T05:33:39.081Z,97718.66
2022-11-28T05:36:12.392Z,97715.72
2022-11-28T05:38:39.525Z,97726.22
2022-11-28T05:41:05.988Z,97717.47
2022-11-28T05:43:32.452Z,97717.00
2022-11-28T05:45:58.944Z,97729.78
2022-11-28T05:48:25.476Z,97721.06
2022-11-28T05:50:52.009Z,97722.19
2022-11-28T05:53:18.893Z,97717.84
2022-11-28T05:55:45.516Z,97719.81
2022-11-28T05:58:12.301Z,97730.13
2022-11-28T06:00:38.785Z,97727.03
2022-11-28T06:03:05.310Z,97724.28
2022-11-28T06:05:46.722Z,97736.16
2022-11-28T06:08:13.315Z,97728.84
2022-11-28T06:10:41.084Z,97724.50
2022-11-28T06:13:07.543Z,97722.75
2022-11-28T06:15:37.960Z,97723.56
2022-11-28T06:18:05.636Z,97725.50
2022-11-28T06:20:32.121Z,97728.91
2022-11-28T06:22:58.614Z,97729.56
2022-11-28T06:25:25.098Z,97744.78
2022-11-28T06:27:51.566Z,97747.03
2022-11-28T06:30:18.106Z,97743.47
2022-11-28T06:32:44.896Z,97757.22
2022-11-28T06:35:11.924Z,97761.00
2022-11-28T06:37:38.369Z,97748.84
2022-11-28T06:40:07.115Z,97740.59
2022-11-28T06:42:38.086Z,97733.81
2022-11-28T06:45:05.201Z,97738.03
2022-11-28T06:47:31.672Z,97744.19
2022-11-28T06:49:58.144Z,97753.56
2022-11-28T06:52:24.607Z,97749.69
2022-11-28T06:54:51.161Z,97764.91
2022-11-28T06:57:17.631Z,97761.50
2022-11-28T06:59:44.312Z,97764.56
2022-11-28T07:02:11.252Z,97769.41
2022-11-28T07:04:37.789Z,97755.50
2022-11-28T07:07:04.301Z,97756.47
2022-11-28T07:09:30.760Z,97759.56
2022-11-28T07:11:57.288Z,97758.25
2022-11-28T07:14:23.988Z,97753.56
2022-11-28T07:16:50.491Z,97764.09
2022-11-28T07:19:22.611Z,97757.44
2022-11-28T07:21:50.126Z,97758.09
2022-11-28T07:24:19.979Z,97754.38
2022-11-28T07:26:46.530Z,97759.56
2022-11-28T07:29:17.002Z,97751.78
2022-11-28T07:31:43.788Z,97755.81
2022-11-28T07:34:10.345Z,97754.00
2022-11-28T07:36:36.862Z,97753.34
2022-11-28T07:39:04.651Z,97751.59
2022-11-28T07:41:31.204Z,97757.72
2022-11-28T07:43:59.224Z,97765.16
2022-11-28T07:46:26.497Z,97759.50
2022-11-28T07:48:53.070Z,97762.88
2022-11-28T07:51:22.260Z,97754.16
2022-11-28T07:53:48.922Z,97751.56
2022-11-28T07:56:17.648Z,97748.81
2022-11-28T07:58:45.200Z,97758.19
2022-11-28T08:01:23.573Z,97752.84
2022-11-28T08:03:50.234Z,97750.25
2022-11-28T08:06:17.211Z,97758.19
2022-11-28T08:08:43.926Z,97762.06
2022-11-28T08:11:10.627Z,97771.78
2022-11-28T08:13:37.529Z,97765.69
2022-11-28T08:16:08.274Z,97763.25
2022-11-28T08:18:35.332Z,97767.97
2022-11-28T08:21:05.954Z,97766.34
2022-11-28T08:23:35.546Z,97770.91
2022-11-28T08:26:02.853Z,97774.31
2022-11-28T08:28:29.620Z,97780.97
2022-11-28T08:30:56.353Z,97775.63
2022-11-28T08:33:24.549Z,97774.97
2022-11-28T08:35:54.196Z,97769.00
2022-11-28T08:38:20.645Z,97779.66
2022-11-28T08:40:47.104Z,97774.97
2022-11-28T08:43:14.529Z,97768.00
2022-11-28T08:45:41.052Z,97765.06
2022-11-28T08:48:07.566Z,97763.94
2022-11-28T08:50:34.029Z,97762.66
2022-11-28T08:53:07.757Z,97767.81
2022-11-28T08:55:37.934Z,97774.44
2022-11-28T08:58:08.437Z,97765.38
2022-11-28T09:00:35.328Z,97767.63
2022-11-28T09:03:01.831Z,97770.72
2022-11-28T09:05:29.197Z,97775.88
2022-11-28T09:07:55.827Z,97786.69
2022-11-28T09:10:22.500Z,97783.94
2022-11-28T09:12:48.970Z,97787.63
2022-11-28T09:15:15.438Z,97785.84
2022-11-28T09:17:41.958Z,97782.78
2022-11-28T09:20:08.708Z,97783.28
2022-11-28T09:22:37.246Z,97781.97
2022-11-28T09:25:03.977Z,97782.78
2022-11-28T09:27:30.448Z,97792.47
2022-11-28T09:29:56.897Z,97785.19
2022-11-28T09:32:23.433Z,97785.69
2022-11-28T09:34:51.135Z,97790.69
2022-11-28T09:37:18.180Z,97791.84
2022-11-28T09:40:11.409Z,97784.25
2022-11-28T09:42:39.208Z,97781.31
2022-11-28T09:45:07.847Z,97788.44
2022-11-28T09:47:37.115Z,97784.53
2022-11-28T09:50:15.309Z,97773.81
2022-11-28T09:53:11.373Z,97764.91
2022-11-28T09:55:52.889Z,97773.00
2022-11-28T09:58:28.299Z,97771.06
2022-11-28T10:01:01.295Z,97771.38
2022-11-28T10:04:19.062Z,97754.72
2022-11-28T10:07:25.656Z,97755.84
2022-11-28T10:10:04.160Z,97766.34
2022-11-28T10:12:43.722Z,97759.22
2022-11-28T10:15:23.417Z,97750.16
2022-11-28T10:18:23.591Z,97756.00
2022-11-28T10:20:56.654Z,97755.34
2022-11-28T10:23:26.847Z,97756.13
2022-11-28T10:26:01.502Z,97754.19
2022-11-28T10:28:36.307Z,97760.84
2022-11-28T10:31:09.285Z,97761.25
2022-11-28T10:33:46.579Z,97750.91
2022-11-28T10:36:16.525Z,97754.78
2022-11-28T10:38:44.039Z,97742.66
2022-11-28T10:41:31.465Z,97746.22
2022-11-28T10:44:21.671Z,97746.34
2022-11-28T10:46:59.461Z,97741.00
2022-11-28T10:49:44.648Z,97744.09
2022-11-28T10:52:29.776Z,97739.53
2022-11-28T10:55:21.288Z,97749.53
2022-11-28T10:58:03.555Z,97750.69
2022-11-28T11:00:39.485Z,97750.47
2022-11-28T11:03:06.456Z,97748.94
2022-11-28T11:05:34.276Z,97752.63
2022-11-28T11:08:22.939Z,97750.75
2022-11-28T11:11:01.714Z,97743.16
2022-11-28T11:13:29.651Z,97737.63
2022-11-28T11:16:11.393Z,97746.19
2022-11-28T11:18:40.915Z,97748.28
2022-11-28T11:21:27.887Z,97742.44
2022-11-28T11:24:16.261Z,97749.34
2022-11-28T11:26:48.926Z,97740.84
2022-11-28T11:29:32.283Z,97748.75
2022-11-28T11:32:03.665Z,97745.53
2022-11-28T11:34:35.406Z,97748.84
2022-11-28T11:37:32.210Z,97747.97
2022-11-28T11:39:59.039Z,97744.00
2022-11-28T11:42:29.478Z,97728.13
2022-11-28T11:44:56.100Z,97736.59
2022-11-28T11:47:40.198Z,97725.94
2022-11-28T11:50:07.198Z,97730.97
2022-11-28T11:52:33.698Z,97728.53
2022-11-28T11:55:14.648Z,97737.88
2022-11-28T11:57:44.437Z,97739.56
2022-11-28T12:00:14.715Z,97728.88
2022-11-28T12:02:43.352Z,97725.56
2022-11-28T12:05:13.653Z,97732.34
2022-11-28T12:07:58.857Z,97744.47
2022-11-28T12:10:27.365Z,97739.00
2022-11-28T12:12:53.938Z,97745.13
2022-11-28T12:15:50.324Z,97748.84
2022-11-28T12:18:28.671Z,97752.06
2022-11-28T12:20:58.057Z,97745.88
2022-11-28T12:23:30.490Z,97745.53
2022-11-28T12:26:15.095Z,97740.47
2022-11-28T12:28:51.488Z,97747.34
2022-11-28T12:31:40.639Z,97753.72
2022-11-28T12:34:35.777Z,97753.25
2022-11-28T12:37:48.332Z,97761.09
2022-11-28T12:40:30.145Z,97752.19
2022-11-28T12:42:56.505Z,97750.72
2022-11-28T12:45:47.551Z,97745.41
2022-11-28T12:48:32.053Z,97740.22
2022-11-28T12:51:36.585Z,97748.97
2022-11-28T12:54:28.612Z,97747.97
2022-11-28T12:57:05.442Z,97746.78
2022-11-28T12:59:33.917Z,97744.50
2022-11-28T13:02:03.982Z,97750.72
2022-11-28T13:05:10.380Z,97739.69
2022-11-28T13:07:39.524Z,97733.91
2022-11-28T13:10:18.051Z,97742.09
2022-11-28T13:13:02.709Z,97744.66
2022-11-28T13:15:49.005Z,97741.22
2022-11-28T13:18:34.613Z,97740.16
2022-11-28T13:21:06.968Z,97741.44
2022-11-28T13:23:55.983Z,97743.72
2022-11-28T13:26:47.422Z,97743.19
2022-11-28T13:29:35.571Z,97744.00
2022-11-28T13:32:19.546Z,97740.44
2022-11-28T13:34:46.683Z,97748.97
2022-11-28T13:40:17.917Z,97744.72
2022-11-28T13:43:07.621Z,97745.53
2022-11-28T13:45:44.266Z,97752.03
2022-11-28T13:49:05.951Z,97753.78
2022-11-28T13:51:30.550Z,97749.53
2022-11-28T13:54:16.995Z,97747.97
2022-11-28T13:56:47.815Z,97749.03
2022-11-28T13:59:19.165Z,97746.69
2022-11-28T14:01:46.656Z,97747.06
2022-11-28T14:04:13.955Z,97754.06
2022-11-28T14:06:45.059Z,97756.22
2022-11-28T14:09:11.387Z,97763.94
2022-11-28T14:12:09.010Z,97759.56
2022-11-28T14:14:42.684Z,97761.84
2022-11-28T14:17:28.049Z,97764.00
2022-11-28T14:20:16.464Z,97753.66
2022-11-28T14:22:49.128Z,97762.91
2022-11-28T14:25:31.896Z,97764.53
2022-11-28T14:28:02.673Z,97772.78
2022-11-28T14:30:37.146Z,97777.16
2022-11-28T14:33:15.766Z,97770.69
2022-11-28T14:35:54.421Z,97776.25
2022-11-28T14:38:30.173Z,97780.47
2022-11-28T14:40:56.778Z,97780.00
2022-11-28T14:43:23.306Z,97784.22
2022-11-28T14:45:50.549Z,97772.75
2022-11-28T14:48:19.196Z,97779.72
2022-11-28T14:50:47.284Z,97778.56
2022-11-28T14:53:35.993Z,97773.06
2022-11-28T14:56:14.598Z,97767.06
2022-11-28T14:58:48.723Z,97767.38
2022-11-28T15:01:19.346Z,97767.38
2022-11-28T15:04:17.447Z,97774.66
2022-11-28T15:06:43.913Z,97772.81
2022-11-28T15:09:42.593Z,97782.91
2022-11-28T15:12:24.007Z,97775.94
2022-11-28T15:14:52.223Z,97773.38
2022-11-28T15:17:19.438Z,97778.53
2022-11-28T15:19:47.571Z,97777.41
2022-11-28T15:22:46.767Z,97783.38
2022-11-28T15:25:20.058Z,97784.53
2022-11-28T15:27:46.536Z,97784.53
2022-11-28T15:30:20.566Z,97783.56
2022-11-28T15:32:47.122Z,97778.06
2022-11-28T15:35:15.535Z,97779.34
2022-11-28T15:37:53.440Z,97773.38
2022-11-28T15:40:29.198Z,97773.19
2022-11-28T15:42:55.675Z,97784.53
2022-11-28T15:45:29.073Z,97777.50
2022-11-28T15:47:56.118Z,97778.69
2022-11-28T15:50:27.404Z,97787.06
2022-11-28T15:53:17.820Z,97778.06
2022-11-28T15:55:44.361Z,97784.78
2022-11-28T15:58:28.574Z,97784.19
2022-11-28T16:01:06.254Z,97779.00
2022-11-28T16:03:35.145Z,97787.94
2022-11-28T16:06:01.640Z,97790.53
2022-11-28T16:08:33.464Z,97779.13
2022-11-28T16:11:00.191Z,97783.91
2022-11-28T16:13:26.660Z,97780.19
2022-11-28T16:15:54.123Z,97774.88
2022-11-28T16:18:20.697Z,97788.28
2022-11-28T16:20:47.151Z,97784.56
2022-11-28T16:23:27.227Z,97779.38
2022-11-28T16:26:38.209Z,97777.75
2022-11-28T16:29:07.636Z,97784.38
2022-11-28T16:31:34.148Z,97779.84
2022-11-28T16:34:00.898Z,97790.34
2022-11-28T16:36:31.048Z,97795.56
2022-11-28T16:39:10.318Z,97794.94
2022-11-28T16:41:40.767Z,97797.97
2022-11-28T16:44:14.405Z,97801.94
2022-11-28T16:46:48.649Z,97799.78
2022-11-28T16:49:34.862Z,97805.72
2022-11-28T16:52:24.130Z,97800.41
2022-11-28T16:54:57.750Z,97806.38
2022-11-28T16:57:27.576Z,97795.72
2022-11-28T16:59:58.188Z,97795.84
2022-11-28T17:02:25.535Z,97800.41
2022-11-28T17:04:52.586Z,97793.28
2022-11-28T17:07:23.286Z,97793.94
2022-11-28T17:09:49.953Z,97793.78
2022-11-28T17:12:29.519Z,97794.13
2022-11-28T17:14:56.188Z,97803.34
2022-11-28T17:17:23.339Z,97800.59
2022-11-28T17:19:49.881Z,97801.25
2022-11-28T17:22:18.030Z,97813.22
2022-11-28T17:24:44.560Z,97812.25
2022-11-28T17:27:14.214Z,97816.47
2022-11-28T17:29:41.127Z,97817.44
2022-11-28T17:32:13.693Z,97823.94
2022-11-28T17:34:41.938Z,97816.47
2022-11-28T17:37:08.782Z,97813.59
2022-11-28T17:39:35.284Z,97812.63
2022-11-28T17:42:01.917Z,97813.75
2022-11-28T17:44:30.213Z,97825.59
2022-11-28T17:46:57.209Z,97817.88
2022-11-28T17:49:24.195Z,97821.44
2022-11-28T17:51:51.376Z,97823.06
2022-11-28T17:54:18.858Z,97819.19
2022-11-28T17:56:45.836Z,97818.84
2022-11-28T17:59:12.680Z,97820.47
2022-11-28T18:01:39.355Z,97816.59
2022-11-28T18:04:06.035Z,97823.06
2022-11-28T18:06:32.705Z,97817.56
2022-11-28T18:08:59.836Z,97819.19
2022-11-28T18:11:26.885Z,97819.69
2022-11-28T18:13:53.610Z,97825.66
2022-11-28T18:16:27.478Z,97822.75
2022-11-28T18:18:56.715Z,97825.84
2022-11-28T18:21:23.758Z,97821.81
2022-11-28T18:23:50.735Z,97813.88
2022-11-28T18:26:19.221Z,97818.91
2022-11-28T18:28:46.034Z,97822.47
2022-11-28T18:31:22.599Z,97817.13
2022-11-28T18:33:49.288Z,97826.31
2022-11-28T18:36:21.558Z,97825.66
2022-11-28T18:38:48.252Z,97825.66
2022-11-28T18:41:16.737Z,97822.75
2022-11-28T18:43:43.989Z,97831.66
2022-11-28T18:46:12.333Z,97829.19
2022-11-28T18:48:40.250Z,97839.88
2022-11-28T18:51:26.632Z,97848.75
2022-11-28T18:54:17.641Z,97839.84
2022-11-28T18:56:47.484Z,97844.69
2022-11-28T18:59:14.291Z,97835.13
2022-11-28T19:01:41.112Z,97839.66
2022-11-28T19:04:09.788Z,97838.69
2022-11-28T19:06:36.613Z,97849.69
2022-11-28T19:09:04.271Z,97846.78
2022-11-28T19:11:31.280Z,97847.75
2022-11-28T19:13:58.023Z,97846.13
2022-11-28T19:16:25.534Z,97845.81
2022-11-28T19:18:52.078Z,97851.97
2022-11-28T19:21:20.442Z,97852.44
2022-11-28T19:23:49.817Z,97853.91
2022-11-28T19:26:18.207Z,97857.47
2022-11-28T19:28:44.681Z,97858.28
2022-11-28T19:31:16.379Z,97859.22
2022-11-28T19:33:43.402Z,97856.47
2022-11-28T19:36:11.165Z,97854.22
2022-11-28T19:38:37.915Z,97858.13
2022-11-28T19:41:08.436Z,97856.16
2022-11-28T19:43:34.988Z,97861.69
2022-11-28T19:46:01.665Z,97855.03
2022-11-28T19:48:28.878Z,97858.44
2022-11-28T19:50:55.514Z,97852.47
2022-11-28T19:53:21.985Z,97857.63
2022-11-28T19:55:49.329Z,97858.94
2022-11-28T19:58:16.257Z,97864.59
2022-11-28T20:00:42.802Z,97868.81
2022-11-28T20:03:09.261Z,97869.28
2022-11-28T20:05:37.209Z,97869.78
2022-11-28T20:08:03.805Z,97876.09
2022-11-28T20:10:30.302Z,97872.38
2022-11-28T20:12:57.255Z,97876.72
2022-11-28T20:15:23.787Z,97867.66
2022-11-28T20:17:50.244Z,97877.88
2022-11-28T20:20:16.823Z,97878.06
2022-11-28T20:22:43.297Z,97877.59
2022-11-28T20:25:09.794Z,97883.72
2022-11-28T20:27:36.302Z,97891.00
2022-11-28T20:30:02.995Z,97887.13
2022-11-28T20:32:29.462Z,97885.50
2022-11-28T20:34:55.967Z,97896.03
2022-11-28T20:37:22.416Z,97890.53
2022-11-28T20:39:48.910Z,97892.97
2022-11-28T20:42:15.542Z,97895.53
2022-11-28T20:44:42.077Z,97903.00
2022-11-28T20:47:10.886Z,97901.22
2022-11-28T20:49:38.285Z,97901.38
2022-11-28T20:52:05.213Z,97895.38
2022-11-28T20:54:31.685Z,97902.19
2022-11-28T20:57:20.475Z,97900.88
2022-11-28T20:59:45.128Z,97899.09
2022-11-28T21:02:11.839Z,97903.97
2022-11-28T21:04:38.393Z,97904.75
2022-11-28T21:07:04.910Z,97901.22
2022-11-28T21:09:31.393Z,97906.06
2022-11-28T21:11:59.161Z,97906.38
2022-11-28T21:14:26.913Z,97909.94
2022-11-28T21:16:54.014Z,97917.50
2022-11-28T21:19:20.748Z,97912.00
2022-11-28T21:21:47.220Z,97902.78
2022-11-28T21:24:13.870Z,97900.56
2022-11-28T21:26:45.102Z,97907.50
2022-11-28T21:29:14.542Z,97912.81
2022-11-28T21:31:42.575Z,97900.69
2022-11-28T21:34:11.047Z,97896.81
2022-11-28T21:36:37.506Z,97914.28
2022-11-28T21:39:04.009Z,97909.25
2022-11-28T21:41:31.895Z,97913.31
2022-11-28T21:43:58.801Z,97916.88
2022-11-28T21:46:25.527Z,97917.50
2022-11-28T21:48:52.094Z,97908.31
2022-11-28T21:51:20.046Z,97915.25
2022-11-28T21:53:46.767Z,97917.50
2022-11-28T21:56:13.275Z,97918.66
2022-11-28T21:58:39.825Z,97917.84
2022-11-28T22:01:07.827Z,97917.06
2022-11-28T22:03:34.543Z,97918.31
2022-11-28T22:06:08.367Z,97919.31
2022-11-28T22:08:35.123Z,97911.84
2022-11-28T22:11:08.324Z,97914.75
2022-11-28T22:13:34.913Z,97906.84
2022-11-28T22:16:01.455Z,97912.81
2022-11-28T22:18:31.089Z,97902.34
2022-11-28T22:21:06.534Z,97911.41
2022-11-28T22:23:36.949Z,97914.00
2022-11-28T22:26:03.949Z,97914.63
2022-11-28T22:28:31.768Z,97922.88
2022-11-28T22:30:58.258Z,97920.13
2022-11-28T22:33:24.706Z,97922.25
2022-11-28T22:35:51.179Z,97931.78
2022-11-28T22:38:17.668Z,97926.94
2022-11-28T22:40:44.131Z,97935.50
2022-11-28T22:43:10.651Z,97936.31
2022-11-28T22:45:37.233Z,97937.13
2022-11-28T22:48:03.840Z,97939.41
2022-11-28T22:50:30.346Z,97944.91
2022-11-28T22:52:56.871Z,97946.84
2022-11-28T22:55:23.348Z,97944.56
2022-11-28T22:57:49.793Z,97959.13
2022-11-28T23:00:16.502Z,97958.81
2022-11-28T23:02:43.163Z,97954.94
2022-11-28T23:05:09.695Z,97952.81
2022-11-28T23:07:36.254Z,97956.38
2022-11-28T23:10:02.777Z,97962.22
2022-11-28T23:12:29.295Z,97961.41
2022-11-28T23:14:55.830Z,97960.59
2022-11-28T23:17:22.301Z,97959.47
2022-11-28T23:19:48.789Z,97962.03
2022-11-28T23:22:15.255Z,97959.63
2022-11-28T23:24:41.966Z,97964.31
2022-11-28T23:27:08.753Z,97960.44
2022-11-28T23:29:35.252Z,97965.13
2022-11-28T23:32:01.760Z,97967.06
2022-11-28T23:34:28.385Z,97969.66
2022-11-28T23:36:54.869Z,97966.56
2022-11-28T23:39:21.928Z,97966.72
2022-11-28T23:41:48.940Z,97973.53
2022-11-28T23:44:15.935Z,97975.16
2022-11-28T23:46:42.702Z,97979.19
2022-11-28T23:49:09.450Z,97976.94
2022-11-28T23:51:35.992Z,97979.34
2022-11-28T23:54:02.530Z,97980.50
2022-11-28T23:56:31.158Z,97986.31
2022-11-28T23:58:57.713Z,97976.59
